createdAt,value
2023-02-16T00:00:00.743Z,101491.63
2023-02-16T00:05:31.076Z,101490.88
2023-02-16T00:10:38.330Z,101497.00
2023-02-16T00:15:41.747Z,101487.56
2023-02-16T00:20:45.668Z,101483.22
2023-02-16T00:25:48.674Z,101481.56
2023-02-16T00:30:51.985Z,101482.66
2023-02-16T00:35:55.025Z,101477.63
2023-02-16T00:40:57.813Z,101485.56
2023-02-16T00:46:00.754Z,101473.59
2023-02-16T00:51:13.743Z,101478.84
2023-02-16T00:56:24.040Z,101472.94
2023-02-16T01:01:32.133Z,101463.56
2023-02-16T01:06:53.414Z,101461.09
2023-02-16T01:11:57.116Z,101457.66
2023-02-16T01:17:00.309Z,101460.19
2023-02-16T01:22:03.225Z,101459.25
2023-02-16T01:27:06.149Z,101456.63
2023-02-16T01:32:12.982Z,101454.88
2023-02-16T01:37:16.936Z,101439.38
2023-02-16T01:42:51.967Z,101440.25
2023-02-16T01:48:03.216Z,101429.13
2023-02-16T01:53:39.356Z,101425.78
2023-02-16T01:58:54.793Z,101418.78
2023-02-16T02:04:17.252Z,101410.19
2023-02-16T02:09:44.862Z,101412.06
2023-02-16T02:14:49.211Z,101412.97
2023-02-16T02:20:13.519Z,101403.47
2023-02-16T02:25:52.279Z,101408.00
2023-02-16T02:31:14.679Z,101409.78
2023-02-16T02:36:31.449Z,101414.97
2023-02-16T02:42:16.401Z,101414.06
2023-02-16T02:47:19.454Z,101401.97
2023-02-16T02:53:06.636Z,101402.91
2023-02-16T02:58:29.861Z,101398.72
2023-02-16T03:03:46.636Z,101392.81
2023-02-16T03:09:02.267Z,101396.50
2023-02-16T03:22:04.394Z,101394.19
2023-02-16T03:27:27.303Z,101395.97
2023-02-16T03:40:48.072Z,101392.81
2023-02-16T03:45:48.858Z,101398.97
2023-02-16T03:50:51.889Z,101385.22
2023-02-16T03:55:54.867Z,101392.16
2023-02-16T04:02:19.681Z,101392.13
2023-02-16T04:07:46.249Z,101387.78
2023-02-16T04:12:49.671Z,101394.75
2023-02-16T04:17:54.137Z,101389.72
2023-02-16T04:23:05.499Z,101391.56
2023-02-16T04:28:41.140Z,101390.69
2023-02-16T04:34:46.099Z,101388.16
2023-02-16T04:40:56.631Z,101391.75
2023-02-16T04:46:00.179Z,101388.44
2023-02-16T04:51:05.643Z,101389.22
2023-02-16T04:56:13.309Z,101382.16
2023-02-16T05:01:23.014Z,101378.69
2023-02-16T05:06:26.037Z,101381.31
2023-02-16T05:11:47.734Z,101383.13
2023-02-16T05:16:51.127Z,101396.28
2023-02-16T05:21:54.089Z,101379.22
2023-02-16T05:26:57.107Z,101379.34
2023-02-16T05:32:04.298Z,101385.50
2023-02-16T05:37:07.933Z,101377.88
2023-02-16T05:42:12.323Z,101384.88
2023-02-16T05:47:15.363Z,101390.94
2023-02-16T05:52:18.335Z,101384.00
2023-02-16T05:57:21.426Z,101387.47
2023-02-16T06:02:24.412Z,101377.19
2023-02-16T06:07:27.701Z,101372.88
2023-02-16T06:12:32.411Z,101383.28
2023-02-16T06:17:35.335Z,101374.53
2023-02-16T06:22:38.403Z,101376.88
2023-02-16T06:27:41.427Z,101381.72
2023-02-16T06:32:44.384Z,101384.88
2023-02-16T06:37:47.396Z,101381.88
2023-02-16T06:42:50.354Z,101384.06
2023-02-16T06:47:53.369Z,101365.66
2023-02-16T06:52:56.270Z,101369.69
2023-02-16T06:57:59.227Z,101368.53
2023-02-16T07:03:02.758Z,101365.50
2023-02-16T07:08:05.659Z,101366.81
2023-02-16T07:13:08.599Z,101371.69
2023-02-16T07:18:11.465Z,101371.41
2023-02-16T07:23:14.365Z,101365.63
2023-02-16T07:28:17.664Z,101360.00
2023-02-16T07:33:21.297Z,101367.31
2023-02-16T07:38:24.053Z,101355.50
2023-02-16T07:43:27.166Z,101373.00
2023-02-16T07:48:30.259Z,101377.84
2023-02-16T07:53:33.382Z,101364.09
2023-02-16T07:58:36.906Z,101367.47
2023-02-16T08:03:41.265Z,101366.75
2023-02-16T08:08:44.829Z,101375.78
2023-02-16T08:13:48.353Z,101370.38
2023-02-16T08:18:52.800Z,101367.06
2023-02-16T08:24:05.899Z,101371.97
2023-02-16T08:29:10.302Z,101360.72
2023-02-16T08:34:16.572Z,101349.84
2023-02-16T08:39:21.552Z,101363.38
2023-02-16T08:44:25.832Z,101356.69
2023-02-16T08:49:28.892Z,101361.22
2023-02-16T08:54:33.484Z,101340.09
2023-02-16T08:59:36.417Z,101341.59
2023-02-16T09:04:39.864Z,101348.25
2023-02-16T09:09:44.560Z,101338.97
2023-02-16T09:14:47.752Z,101341.81
2023-02-16T09:19:50.856Z,101330.75
2023-02-16T09:24:53.806Z,101338.09
2023-02-16T09:29:58.605Z,101338.63
2023-02-16T09:35:01.693Z,101339.66
2023-02-16T09:40:05.303Z,101335.00
2023-02-16T09:45:15.813Z,101338.53
2023-02-16T09:50:50.288Z,101337.38
2023-02-16T09:56:10.205Z,101324.25
2023-02-16T10:01:43.238Z,101321.66
2023-02-16T10:06:58.412Z,101318.84
2023-02-16T10:12:09.408Z,101314.31
2023-02-16T10:17:37.692Z,101311.59
2023-02-16T10:23:25.194Z,101298.81
2023-02-16T10:28:55.514Z,101304.78
2023-02-16T10:34:24.701Z,101291.50
2023-02-16T10:39:52.114Z,101283.38
2023-02-16T10:45:20.774Z,101265.53
2023-02-16T10:50:41.006Z,101261.91
2023-02-16T10:55:44.033Z,101249.63
2023-02-16T11:01:15.690Z,101242.81
2023-02-16T11:06:26.222Z,101242.97
2023-02-16T11:11:37.291Z,101233.47
2023-02-16T11:16:40.571Z,101220.72
2023-02-16T11:21:56.634Z,101213.09
2023-02-16T11:27:23.268Z,101209.38
2023-02-16T11:32:26.445Z,101207.84
2023-02-16T11:37:33.587Z,101200.63
2023-02-16T11:42:44.652Z,101193.44
2023-02-16T11:47:55.953Z,101182.63
2023-02-16T11:53:24.917Z,101167.75
2023-02-16T11:58:29.310Z,101169.50
2023-02-16T12:03:49.141Z,101153.06
2023-02-16T12:09:15.743Z,101148.06
2023-02-16T12:14:51.360Z,101135.75
2023-02-16T12:20:23.332Z,101136.06
2023-02-16T12:25:42.244Z,101131.44
2023-02-16T12:31:22.720Z,101124.88
2023-02-16T12:36:56.490Z,101114.78
2023-02-16T12:42:32.552Z,101106.38
2023-02-16T12:47:44.024Z,101100.25
2023-02-16T12:52:59.073Z,101097.56
2023-02-16T12:58:08.292Z,101078.16
2023-02-16T13:03:22.589Z,101076.34
2023-02-16T13:08:39.329Z,101068.53
2023-02-16T13:13:46.921Z,101056.97
2023-02-16T13:18:52.855Z,101054.06
2023-02-16T13:24:35.018Z,101043.59
2023-02-16T13:29:52.749Z,101032.28
2023-02-16T13:35:35.815Z,101033.97
2023-02-16T13:41:11.777Z,101027.97
2023-02-16T13:46:28.692Z,101030.88
2023-02-16T13:51:46.312Z,101028.09
2023-02-16T13:56:49.353Z,101023.06
2023-02-16T14:01:57.022Z,101025.44
2023-02-16T14:07:09.770Z,101013.00
2023-02-16T14:12:19.579Z,101013.00
2023-02-16T14:17:22.663Z,101009.53
2023-02-16T14:23:00.148Z,101007.97
2023-02-16T14:28:26.121Z,101019.00
2023-02-16T14:33:46.406Z,101017.88
2023-02-16T14:38:52.185Z,101020.06
2023-02-16T14:44:07.505Z,101019.25
2023-02-16T14:49:55.215Z,101010.84
2023-02-16T14:55:51.555Z,101020.88
2023-02-16T15:01:16.540Z,101018.31
2023-02-16T15:06:25.453Z,101013.00
2023-02-16T15:12:00.561Z,101016.56
2023-02-16T15:17:08.218Z,101015.50
2023-02-16T15:22:23.144Z,101019.72
2023-02-16T15:27:26.581Z,101016.13
2023-02-16T15:32:29.588Z,101009.03
2023-02-16T15:37:33.063Z,101015.13
2023-02-16T15:42:38.295Z,101015.94
2023-02-16T15:47:41.158Z,101017.81
2023-02-16T15:52:44.204Z,101015.44
2023-02-16T15:57:47.229Z,101025.56
2023-02-16T16:02:54.839Z,101023.91
2023-02-16T16:07:58.757Z,101016.25
2023-02-16T16:13:06.952Z,101020.78
2023-02-16T16:18:50.366Z,101025.03
2023-02-16T16:24:00.378Z,101026.50
2023-02-16T16:29:04.535Z,101028.69
2023-02-16T16:34:12.488Z,101034.13
2023-02-16T16:39:18.460Z,101035.97
2023-02-16T16:44:38.952Z,101041.88
2023-02-16T16:50:02.943Z,101036.72
2023-02-16T16:55:35.017Z,101039.66
2023-02-16T17:00:42.269Z,101030.22
2023-02-16T17:05:46.129Z,101031.59
2023-02-16T17:10:49.270Z,101030.38
2023-02-16T17:16:12.325Z,101036.91
2023-02-16T17:21:16.343Z,101039.53
2023-02-16T17:26:19.218Z,101030.69
2023-02-16T17:31:22.220Z,101031.94
2023-02-16T17:36:27.746Z,101025.44
2023-02-16T17:41:30.842Z,101017.03
2023-02-16T17:46:33.951Z,101010.72
2023-02-16T17:51:37.238Z,101012.09
2023-02-16T17:56:40.346Z,101021.09
2023-02-16T18:01:45.196Z,101019.75
2023-02-16T18:06:48.260Z,101022.34
2023-02-16T18:11:51.473Z,101021.25
2023-02-16T18:16:54.606Z,101027.47
2023-02-16T18:21:57.796Z,101030.41
2023-02-16T18:27:00.536Z,101038.44
2023-02-16T18:32:04.705Z,101046.63
2023-02-16T18:37:07.630Z,101037.63
2023-02-16T18:42:11.570Z,101036.06
2023-02-16T18:47:15.225Z,101039.00
2023-02-16T18:52:19.115Z,101027.50
2023-02-16T18:57:22.748Z,101027.78
2023-02-16T19:02:25.837Z,101017.53
2023-02-16T19:07:29.051Z,101031.69
2023-02-16T19:12:32.120Z,101032.72
2023-02-16T19:17:35.898Z,101035.56
2023-02-16T19:22:38.982Z,101042.03
2023-02-16T19:27:42.949Z,101036.56
2023-02-16T19:32:45.902Z,101030.09
2023-02-16T19:37:49.530Z,101044.81
2023-02-16T19:42:52.536Z,101043.78
2023-02-16T19:47:55.443Z,101046.84
2023-02-16T19:52:58.325Z,101040.97
2023-02-16T19:58:01.711Z,101043.63
2023-02-16T20:03:04.825Z,101045.16
2023-02-16T20:08:08.125Z,101036.84
2023-02-16T20:13:11.415Z,101048.53
2023-02-16T20:18:14.407Z,101048.03
2023-02-16T20:23:17.562Z,101047.16
2023-02-16T20:28:21.005Z,101051.88
2023-02-16T20:33:23.975Z,101048.69
2023-02-16T20:38:26.899Z,101046.22
2023-02-16T20:43:30.476Z,101048.88
2023-02-16T20:48:34.679Z,101054.16
2023-02-16T20:53:37.879Z,101048.88
2023-02-16T20:58:42.330Z,101052.63
2023-02-16T21:03:45.789Z,101047.78
2023-02-16T21:08:48.708Z,101035.72
2023-02-16T21:13:52.089Z,101034.47
2023-02-16T21:18:56.447Z,101031.31
2023-02-16T21:23:59.472Z,101044.38
2023-02-16T21:29:02.584Z,101047.22
2023-02-16T21:34:05.583Z,101040.38
2023-02-16T21:39:08.450Z,101039.28
2023-02-16T21:44:15.648Z,101034.28
2023-02-16T21:49:20.577Z,101027.31
2023-02-16T21:54:43.685Z,101024.81
2023-02-16T21:59:46.581Z,101015.03
2023-02-16T22:04:49.563Z,101018.84
2023-02-16T22:09:52.452Z,101021.16
2023-02-16T22:14:55.546Z,101023.38
2023-02-16T22:19:58.397Z,101019.69
2023-02-16T22:25:01.198Z,101013.72
2023-02-16T22:30:06.140Z,101018.22
2023-02-16T22:35:09.169Z,101017.53
2023-02-16T22:40:12.279Z,101018.38
2023-02-16T22:45:15.281Z,101017.19
2023-02-16T22:50:18.446Z,101009.69
2023-02-16T22:55:21.426Z,101004.00
2023-02-16T23:00:24.367Z,101004.19
2023-02-16T23:05:29.504Z,101005.50
2023-02-16T23:10:35.525Z,101013.09
2023-02-16T23:15:38.516Z,101005.19
2023-02-16T23:20:41.932Z,101010.22
2023-02-16T23:25:47.935Z,101008.38
2023-02-16T23:30:50.679Z,101015.00
2023-02-16T23:35:54.948Z,101015.38
2023-02-16T23:41:05.517Z,101019.13
2023-02-16T23:46:09.980Z,101015.84
2023-02-16T23:51:13.140Z,101017.53
2023-02-16T23:56:25.853Z,101020.75
